Terminal Aerodrome Forecast
Issued by NWS Mobile, AL

Home | Current Version | Previous Version | Text Only | Print | Product List | Glossary On
Versions: 1 2 3 4 5 6 7 8 9 10 11 12 13 14 15 16 17 18 19 20 21 22 23 24 25 26
000
FTUS44 KMOB 140500
TAFMOB
TAF
KMOB 140532Z 1406/1506 19005KT P6SM FEW030 SCT250
     FM141600 20008KT P6SM SCT035 SCT250
     FM142100 20008KT P6SM VCTS BKN040CB BKN250
     FM150200 18005KT P6SM FEW040 SCT250=

USA.gov is the U.S. government's official web portal to all federal, state and local government web resources and services.